createdAt,value
2018-08-19T03:14:34.218Z,20.47
2018-08-19T03:15:34.174Z,20.54
2018-08-19T03:16:34.177Z,20.54
2018-08-19T03:17:34.188Z,20.93
2018-08-19T03:18:34.182Z,20.81
2018-08-19T03:19:34.168Z,20.77
2018-08-19T03:20:34.169Z,20.58
2018-08-19T03:21:34.163Z,20.34
2018-08-19T03:22:34.173Z,20.53
2018-08-19T03:23:34.182Z,20.79
2018-08-19T03:24:34.185Z,20.81
2018-08-19T03:25:34.182Z,21.04
2018-08-19T03:26:34.189Z,20.90
2018-08-19T03:27:34.177Z,20.77
2018-08-19T03:28:34.173Z,20.86
2018-08-19T03:29:34.186Z,20.56
2018-08-19T03:30:34.186Z,20.49
2018-08-19T03:31:34.184Z,21.14
2018-08-19T03:32:34.234Z,20.90
2018-08-19T03:33:34.219Z,21.13
2018-08-19T03:34:34.233Z,21.29
2018-08-19T03:35:34.194Z,21.48
2018-08-19T03:36:34.193Z,21.51
2018-08-19T03:37:34.209Z,21.05
2018-08-19T03:38:34.223Z,21.13
2018-08-19T03:39:34.204Z,20.77
2018-08-19T03:40:34.207Z,20.65
2018-08-19T03:41:34.229Z,20.71
2018-08-19T03:42:34.217Z,21.27
2018-08-19T03:43:34.234Z,21.17
2018-08-19T03:44:34.224Z,20.84
2018-08-19T03:45:34.226Z,20.68
2018-08-19T03:46:34.237Z,20.61
2018-08-19T03:47:34.254Z,20.62
2018-08-19T03:48:34.250Z,20.24
2018-08-19T03:49:34.262Z,20.05
2018-08-19T03:50:34.245Z,20.27
2018-08-19T03:51:34.245Z,20.16
2018-08-19T03:52:34.241Z,20.20
2018-08-19T03:53:34.246Z,20.18
2018-08-19T03:54:34.255Z,20.51
2018-08-19T03:55:34.261Z,20.47
2018-08-19T03:56:34.255Z,20.41
2018-08-19T03:57:34.284Z,20.03
2018-08-19T03:58:34.250Z,20.34
2018-08-19T03:59:34.256Z,20.25
2018-08-19T04:00:34.267Z,20.30
2018-08-19T04:01:34.265Z,20.30
2018-08-19T04:02:34.275Z,20.54
2018-08-19T04:03:34.270Z,20.71
2018-08-19T04:04:34.274Z,20.72
2018-08-19T04:05:34.273Z,20.56
2018-08-19T04:06:34.288Z,20.71
2018-08-19T04:07:34.288Z,20.81
2018-08-19T04:08:34.283Z,20.47
2018-08-19T04:09:34.284Z,19.97
2018-08-19T04:10:34.283Z,19.66
2018-08-19T04:11:34.314Z,19.54
2018-08-19T04:12:34.297Z,20.05
2018-08-19T04:13:34.323Z,20.31
2018-08-19T04:14:34.298Z,20.03
2018-08-19T04:15:34.303Z,20.16
2018-08-19T04:16:34.303Z,20.20
2018-08-19T04:17:34.336Z,20.16
2018-08-19T04:18:34.315Z,20.53
2018-08-19T04:19:34.313Z,20.58
2018-08-19T04:20:34.333Z,20.38
2018-08-19T04:21:34.334Z,20.65
2018-08-19T04:22:34.344Z,20.76
2018-08-19T04:23:34.382Z,20.59
2018-08-19T04:24:34.343Z,20.61
2018-08-19T04:25:34.333Z,20.35
2018-08-19T04:26:34.338Z,20.62
2018-08-19T04:27:34.365Z,20.74
2018-08-19T04:28:34.338Z,20.71
2018-08-19T04:29:34.344Z,20.59
2018-08-19T04:30:34.354Z,20.74
2018-08-19T04:31:34.358Z,20.90
2018-08-19T04:32:34.351Z,21.09
2018-08-19T04:33:34.346Z,20.80
2018-08-19T04:34:34.363Z,20.81
2018-08-19T04:35:34.354Z,20.79
2018-08-19T04:36:34.366Z,20.93
2018-08-19T04:37:34.375Z,20.28
2018-08-19T04:38:34.371Z,20.13
2018-08-19T04:39:34.373Z,20.30
2018-08-19T04:40:34.399Z,20.24
2018-08-19T04:41:34.387Z,20.43
2018-08-19T04:42:34.401Z,20.46
2018-08-19T04:43:34.395Z,20.25
2018-08-19T04:44:34.394Z,20.02
2018-08-19T04:45:34.414Z,19.87
2018-08-19T04:46:34.417Z,20.38
2018-08-19T04:47:34.391Z,20.68
2018-08-19T04:48:34.400Z,20.77
2018-08-19T04:49:34.417Z,20.64
2018-08-19T04:50:34.400Z,20.50
2018-08-19T04:51:34.403Z,20.39
2018-08-19T04:52:34.398Z,20.39
2018-08-19T04:53:34.432Z,20.34
2018-08-19T04:54:34.429Z,20.31
2018-08-19T04:55:34.431Z,20.34
2018-08-19T04:56:34.436Z,20.35
2018-08-19T04:57:34.421Z,20.54
2018-08-19T04:58:34.434Z,20.43
2018-08-19T04:59:34.428Z,20.58
2018-08-19T05:00:34.439Z,20.43
2018-08-19T05:01:34.444Z,20.18
2018-08-19T05:02:34.470Z,20.08
2018-08-19T05:03:34.495Z,19.90
2018-08-19T05:04:34.448Z,19.69
2018-08-19T05:05:34.444Z,20.03
2018-08-19T05:06:34.445Z,20.21
2018-08-19T05:07:34.460Z,20.31
2018-08-19T05:08:34.455Z,20.47
2018-08-19T05:09:34.471Z,20.56
2018-08-19T05:10:34.482Z,20.38
2018-08-19T05:11:34.466Z,20.03
2018-08-19T05:12:34.479Z,19.54
2018-08-19T05:13:34.482Z,19.58
2018-08-19T05:14:34.465Z,19.57
2018-08-19T05:15:34.531Z,19.97
2018-08-19T05:16:34.480Z,20.18
2018-08-19T05:17:34.492Z,20.51
2018-08-19T05:18:34.484Z,20.24
2018-08-19T05:19:34.484Z,20.25
2018-08-19T05:20:34.490Z,20.64
2018-08-19T05:21:34.490Z,20.51
2018-08-19T05:22:34.507Z,20.71
2018-08-19T05:23:34.499Z,20.23
2018-08-19T05:24:34.507Z,20.00
2018-08-19T05:25:34.508Z,19.98
2018-08-19T05:26:34.531Z,19.83
2018-08-19T05:27:34.538Z,20.06
2018-08-19T05:28:34.538Z,20.28
2018-08-19T05:29:34.521Z,20.33
2018-08-19T05:30:34.544Z,20.41
2018-08-19T05:31:34.614Z,20.13
2018-08-19T05:32:34.536Z,20.21
2018-08-19T05:33:34.525Z,20.23
2018-08-19T05:34:34.532Z,20.13
2018-08-19T05:35:34.527Z,20.06
2018-08-19T05:36:34.546Z,19.90
2018-08-19T05:37:34.567Z,20.54
2018-08-19T05:38:34.539Z,20.71
2018-08-19T05:39:34.537Z,20.89
2018-08-19T05:40:34.547Z,20.81
2018-08-19T05:41:34.554Z,20.74
2018-08-19T05:42:34.704Z,20.68
2018-08-19T05:43:34.565Z,20.64
2018-08-19T05:44:34.558Z,20.62
2018-08-19T05:45:34.634Z,20.54
2018-08-19T05:46:34.591Z,20.50
2018-08-19T05:47:34.609Z,20.43
2018-08-19T05:48:34.584Z,20.13
2018-08-19T05:49:34.588Z,20.30
2018-08-19T05:50:34.589Z,20.18
2018-08-19T05:51:34.582Z,20.18
2018-08-19T05:52:34.583Z,20.68
2018-08-19T05:53:34.595Z,20.90
2018-08-19T05:54:34.611Z,20.91
2018-08-19T05:55:34.670Z,21.01
2018-08-19T05:56:34.609Z,21.08
2018-08-19T05:57:34.597Z,20.98
2018-08-19T05:58:34.618Z,20.83
2018-08-19T05:59:34.615Z,20.69
2018-08-19T06:00:34.639Z,20.66
2018-08-19T06:01:34.620Z,20.77
2018-08-19T06:02:34.641Z,20.95
2018-08-19T06:03:34.656Z,21.19
2018-08-19T06:04:34.653Z,20.99
2018-08-19T06:05:34.639Z,20.93
2018-08-19T06:06:34.634Z,21.24
2018-08-19T06:07:34.689Z,21.27
2018-08-19T06:08:34.640Z,21.42
2018-08-19T06:09:34.668Z,21.54
2018-08-19T06:10:34.675Z,21.61
2018-08-19T06:11:34.955Z,21.66
2018-08-19T06:12:34.696Z,21.82
2018-08-19T06:13:34.668Z,21.94
2018-08-19T06:14:34.671Z,22.02
2018-08-19T06:15:34.675Z,21.91
2018-08-19T06:16:34.674Z,21.98
2018-08-19T06:17:34.680Z,22.07
2018-08-19T06:18:34.686Z,21.83
2018-08-19T06:19:34.683Z,21.81
2018-08-19T06:20:34.691Z,22.17
2018-08-19T06:21:34.697Z,22.12
2018-08-19T06:22:34.700Z,22.09
2018-08-19T06:23:34.709Z,22.46
2018-08-19T06:24:34.755Z,22.46
2018-08-19T06:25:34.711Z,22.41
2018-08-19T06:26:34.735Z,22.31
2018-08-19T06:27:34.749Z,22.43
2018-08-19T06:28:34.726Z,22.49
2018-08-19T06:29:34.736Z,22.47
2018-08-19T06:30:34.739Z,22.59
2018-08-19T06:31:34.747Z,22.60
2018-08-19T06:32:34.751Z,22.57
2018-08-19T06:33:34.751Z,22.57
2018-08-19T06:34:34.879Z,22.44
2018-08-19T06:35:34.769Z,22.47
2018-08-19T06:36:34.781Z,22.38
2018-08-19T06:37:34.786Z,22.50
2018-08-19T06:38:34.792Z,22.56
2018-08-19T06:39:34.783Z,22.57
2018-08-19T06:40:34.791Z,22.64
2018-08-19T06:41:34.795Z,22.75
2018-08-19T06:42:34.801Z,22.83
2018-08-19T06:43:34.836Z,22.82
2018-08-19T06:44:34.817Z,22.94
2018-08-19T06:45:34.825Z,22.89
2018-08-19T06:46:34.824Z,22.93
2018-08-19T06:47:34.861Z,22.82
2018-08-19T06:48:34.827Z,22.80
2018-08-19T06:49:34.829Z,22.75
2018-08-19T06:50:34.837Z,22.65
2018-08-19T06:51:34.850Z,22.69
2018-08-19T06:52:34.853Z,22.60
2018-08-19T06:53:34.862Z,22.65
2018-08-19T06:54:34.869Z,22.60
2018-08-19T06:55:34.876Z,22.54
2018-08-19T06:56:34.870Z,22.46
2018-08-19T06:57:34.877Z,22.38
2018-08-19T06:58:34.875Z,22.46
2018-08-19T06:59:34.895Z,22.60
2018-08-19T07:00:34.897Z,22.56
2018-08-19T07:01:34.904Z,22.43
2018-08-19T07:02:34.911Z,22.59
2018-08-19T07:03:34.998Z,22.64
2018-08-19T07:04:34.912Z,22.77
2018-08-19T07:05:34.919Z,22.77
2018-08-19T07:06:34.922Z,22.90
2018-08-19T07:07:34.956Z,22.94
2018-08-19T07:08:34.944Z,23.04
2018-08-19T07:09:34.956Z,23.07
2018-08-19T07:10:34.958Z,22.89
2018-08-19T07:11:34.944Z,22.94
2018-08-19T07:12:35.011Z,23.05
2018-08-19T07:13:34.959Z,22.94
2018-08-19T07:14:34.977Z,23.01
2018-08-19T07:15:35.058Z,22.99
2018-08-19T07:16:34.971Z,23.07
2018-08-19T07:17:35.107Z,23.02
2018-08-19T07:18:35.026Z,22.83
2018-08-19T07:19:34.988Z,22.67
2018-08-19T07:20:35.000Z,22.72
2018-08-19T07:21:35.041Z,22.78
2018-08-19T07:22:35.008Z,22.80
2018-08-19T07:23:35.018Z,22.86
2018-08-19T07:24:35.019Z,22.78
2018-08-19T07:25:35.031Z,22.69
2018-08-19T07:26:35.031Z,22.72
2018-08-19T07:27:35.041Z,22.72
2018-08-19T07:28:35.036Z,22.75
2018-08-19T07:29:35.054Z,22.78
2018-08-19T07:30:35.052Z,22.83
2018-08-19T07:31:35.061Z,22.80
2018-08-19T07:32:35.064Z,22.86
2018-08-19T07:33:35.068Z,22.84
2018-08-19T07:34:35.081Z,22.87
2018-08-19T07:35:35.093Z,22.90
2018-08-19T07:36:35.089Z,22.90
2018-08-19T07:37:35.084Z,22.90
2018-08-19T07:38:35.104Z,22.92
2018-08-19T07:39:35.120Z,22.86
2018-08-19T07:40:35.113Z,22.93
2018-08-19T07:41:35.118Z,22.80
2018-08-19T07:42:35.114Z,22.93
2018-08-19T07:43:35.116Z,23.01
2018-08-19T07:44:35.124Z,23.04
2018-08-19T07:45:35.129Z,23.05
2018-08-19T07:46:35.147Z,23.05
2018-08-19T07:47:35.153Z,23.08
2018-08-19T07:48:35.146Z,23.14
2018-08-19T07:49:35.166Z,22.86
2018-08-19T07:50:35.161Z,23.01
2018-08-19T07:51:35.180Z,23.08
2018-08-19T07:52:35.164Z,23.20
2018-08-19T07:53:35.173Z,23.29
2018-08-19T07:54:35.180Z,23.32
2018-08-19T07:55:35.189Z,23.35
2018-08-19T07:56:35.208Z,23.32
2018-08-19T07:57:35.200Z,23.40
2018-08-19T07:58:35.202Z,23.39
2018-08-19T07:59:35.222Z,23.35
2018-08-19T08:00:35.209Z,23.43
2018-08-19T08:01:35.240Z,23.57
2018-08-19T08:02:35.227Z,23.52
2018-08-19T08:03:35.228Z,23.50
2018-08-19T08:04:35.233Z,23.46
2018-08-19T08:05:35.246Z,23.52
2018-08-19T08:06:35.246Z,23.55
2018-08-19T08:07:35.248Z,23.64
2018-08-19T08:08:35.254Z,23.61
2018-08-19T08:09:35.276Z,23.49
2018-08-19T08:10:35.294Z,23.52
2018-08-19T08:11:35.268Z,23.46
2018-08-19T08:12:35.281Z,23.64
2018-08-19T08:13:35.283Z,23.61
2018-08-19T08:14:35.312Z,23.55
2018-08-19T08:15:35.316Z,23.53
2018-08-19T08:16:35.321Z,23.58
2018-08-19T08:17:35.333Z,23.70
2018-08-19T08:18:35.329Z,23.70
2018-08-19T08:19:35.321Z,23.75
2018-08-19T08:20:35.328Z,23.68
2018-08-19T08:21:35.459Z,23.75
2018-08-19T08:22:35.338Z,23.62
2018-08-19T08:23:35.333Z,23.61
2018-08-19T08:24:35.343Z,23.65
2018-08-19T08:25:35.352Z,23.68
2018-08-19T08:26:35.352Z,23.60
2018-08-19T08:27:35.370Z,23.64
2018-08-19T08:28:35.361Z,23.61
2018-08-19T08:29:35.367Z,23.58
2018-08-19T08:30:35.372Z,23.67
2018-08-19T08:31:35.405Z,23.83
2018-08-19T08:32:35.398Z,23.94
2018-08-19T08:33:35.396Z,23.85
2018-08-19T08:34:35.400Z,23.94
2018-08-19T08:35:35.426Z,24.04
2018-08-19T08:36:35.408Z,23.95
2018-08-19T08:37:35.421Z,23.95
2018-08-19T08:38:35.422Z,23.90
2018-08-19T08:39:35.431Z,24.04
2018-08-19T08:40:35.466Z,24.05
2018-08-19T08:41:35.448Z,24.07
2018-08-19T08:42:35.465Z,24.00
2018-08-19T08:43:35.450Z,23.95
2018-08-19T08:44:35.487Z,23.89
2018-08-19T08:45:35.466Z,23.90
2018-08-19T08:46:35.471Z,23.82
2018-08-19T08:47:35.587Z,23.77
2018-08-19T08:48:35.483Z,23.80
2018-08-19T08:49:35.510Z,23.90
2018-08-19T08:50:35.493Z,23.95
2018-08-19T08:51:35.507Z,24.08
2018-08-19T08:52:35.510Z,23.86
2018-08-19T08:53:35.517Z,24.00
2018-08-19T08:54:35.518Z,24.02
2018-08-19T08:55:35.548Z,24.24
2018-08-19T08:56:35.539Z,24.22
2018-08-19T08:57:35.557Z,24.35
2018-08-19T08:58:35.543Z,24.14
2018-08-19T08:59:35.547Z,24.20
2018-08-19T09:00:35.552Z,24.14
2018-08-19T09:01:35.561Z,24.08
2018-08-19T09:02:35.565Z,24.17
2018-08-19T09:03:35.572Z,24.20
2018-08-19T09:04:35.578Z,24.17
2018-08-19T09:05:35.581Z,24.13
2018-08-19T09:06:35.589Z,24.31
2018-08-19T09:07:35.625Z,24.42
2018-08-19T09:08:35.608Z,24.57
2018-08-19T09:09:35.619Z,24.64
2018-08-19T09:10:35.612Z,24.60
2018-08-19T09:11:35.624Z,24.39
2018-08-19T09:12:35.619Z,24.57
2018-08-19T09:13:35.628Z,24.41
2018-08-19T09:14:35.642Z,24.41
2018-08-19T09:15:35.643Z,24.41
2018-08-19T09:16:35.662Z,24.63
2018-08-19T09:17:35.670Z,24.50
2018-08-19T09:18:35.677Z,24.20
2018-08-19T09:19:35.699Z,24.35
2018-08-19T09:20:35.679Z,24.22
2018-08-19T09:21:35.708Z,24.32
2018-08-19T09:22:35.688Z,24.34
2018-08-19T09:23:35.737Z,24.22
2018-08-19T09:24:35.742Z,24.47
2018-08-19T09:25:35.702Z,24.52
2018-08-19T09:26:35.739Z,24.68
2018-08-19T09:27:35.732Z,24.76
2018-08-19T09:28:35.720Z,24.82
2018-08-19T09:29:35.741Z,24.71
2018-08-19T09:30:35.765Z,24.57
2018-08-19T09:31:35.745Z,24.67
2018-08-19T09:32:35.782Z,24.64
2018-08-19T09:33:35.757Z,24.67
2018-08-19T09:34:35.763Z,24.71
2018-08-19T09:35:35.767Z,24.90
2018-08-19T09:36:35.781Z,24.87
2018-08-19T09:37:35.781Z,24.92
2018-08-19T09:38:35.784Z,25.06
2018-08-19T09:39:35.817Z,25.09
2018-08-19T09:40:35.817Z,25.10
2018-08-19T09:41:35.819Z,25.32
2018-08-19T09:42:35.813Z,25.27
2018-08-19T09:43:35.831Z,25.35
2018-08-19T09:44:35.828Z,25.31
2018-08-19T09:45:35.842Z,25.16
2018-08-19T09:46:35.842Z,24.88
2018-08-19T09:47:35.867Z,24.88
2018-08-19T09:48:35.857Z,24.85
2018-08-19T09:49:35.865Z,24.71
2018-08-19T09:50:35.863Z,24.59
2018-08-19T09:51:35.896Z,24.79
2018-08-19T09:52:35.882Z,24.97
2018-08-19T09:53:35.905Z,25.15
2018-08-19T09:54:35.936Z,25.09
2018-08-19T09:55:36.691Z,25.25
2018-08-19T09:56:35.933Z,25.17
2018-08-19T09:57:35.939Z,25.31
2018-08-19T09:58:35.911Z,25.24
2018-08-19T09:59:35.944Z,25.25
2018-08-19T10:00:35.941Z,25.22
2018-08-19T10:01:36.064Z,25.25
2018-08-19T10:02:35.946Z,25.24
2018-08-19T10:03:35.953Z,25.28
2018-08-19T10:04:35.958Z,25.34
2018-08-19T10:05:35.980Z,25.46
2018-08-19T10:06:35.968Z,25.31
2018-08-19T10:07:36.051Z,25.31
2018-08-19T10:08:35.989Z,25.25
2018-08-19T10:09:36.022Z,25.05
2018-08-19T10:10:36.503Z,25.20
2018-08-19T10:11:36.000Z,25.10
2018-08-19T10:12:36.005Z,25.25
2018-08-19T10:13:36.060Z,25.28
2018-08-19T10:14:36.018Z,25.34
2018-08-19T10:15:36.090Z,25.38
2018-08-19T10:16:36.038Z,25.35
2018-08-19T10:17:36.075Z,25.30
2018-08-19T10:18:36.042Z,25.27
2018-08-19T10:19:36.070Z,25.47
2018-08-19T10:20:36.056Z,25.37
2018-08-19T10:21:36.089Z,25.47
2018-08-19T10:22:36.080Z,25.61
2018-08-19T10:23:36.083Z,25.53
2018-08-19T10:24:36.080Z,25.47
2018-08-19T10:25:36.154Z,25.54
2018-08-19T10:26:36.257Z,25.59
2018-08-19T10:27:36.103Z,25.39
2018-08-19T10:28:36.103Z,25.57
2018-08-19T10:29:36.115Z,25.65
2018-08-19T10:30:36.121Z,25.71
2018-08-19T10:31:36.127Z,25.65
2018-08-19T10:32:36.144Z,25.38
2018-08-19T10:33:36.139Z,25.34
2018-08-19T10:34:36.163Z,25.39
2018-08-19T10:35:36.175Z,25.71
2018-08-19T10:36:36.157Z,25.68
2018-08-19T10:37:36.165Z,25.50
2018-08-19T10:38:36.171Z,25.44
2018-08-19T10:39:36.195Z,25.57
2018-08-19T10:40:36.208Z,25.68
2018-08-19T10:41:36.192Z,25.80
2018-08-19T10:42:36.282Z,25.84
2018-08-19T10:43:36.237Z,25.99
2018-08-19T10:44:36.222Z,25.84
2018-08-19T10:45:36.222Z,25.77
2018-08-19T10:46:36.263Z,25.72
2018-08-19T10:47:36.261Z,25.59
2018-08-19T10:48:36.248Z,25.59
2018-08-19T10:49:36.254Z,25.64
2018-08-19T10:50:36.338Z,25.56
2018-08-19T10:51:44.903Z,25.54
2018-08-19T10:53:30.968Z,25.62
2018-08-19T10:54:30.974Z,25.94
2018-08-19T10:55:30.972Z,25.94
2018-08-19T10:56:30.989Z,26.06
2018-08-19T10:57:30.992Z,26.35
2018-08-19T10:58:31.038Z,26.04
2018-08-19T10:59:30.996Z,26.20
2018-08-19T11:00:31.004Z,26.06
2018-08-19T11:01:31.013Z,26.06
2018-08-19T11:02:31.013Z,25.98
2018-08-19T11:03:31.021Z,25.82
2018-08-19T11:04:31.032Z,25.93
2018-08-19T11:05:31.050Z,25.98
2018-08-19T11:06:31.094Z,25.98
2018-08-19T11:07:31.043Z,25.91
2018-08-19T11:08:31.047Z,25.86
2018-08-19T11:09:31.054Z,26.24
2018-08-19T11:10:31.071Z,26.35
2018-08-19T11:11:31.109Z,26.06
2018-08-19T11:12:31.075Z,26.21
2018-08-19T11:13:31.125Z,26.17
2018-08-19T11:14:31.088Z,25.87
2018-08-19T11:15:31.101Z,25.86
2018-08-19T11:16:31.102Z,26.20
2018-08-19T11:17:31.109Z,26.29
2018-08-19T11:18:31.121Z,26.24
2018-08-19T11:19:31.119Z,26.20
2018-08-19T11:20:31.133Z,26.06
2018-08-19T11:21:31.165Z,25.98
2018-08-19T11:22:31.150Z,25.89
2018-08-19T11:23:31.149Z,26.01
2018-08-19T11:24:31.163Z,25.94
2018-08-19T11:25:31.164Z,26.25
2018-08-19T11:26:31.177Z,26.37
2018-08-19T11:27:31.201Z,26.43
2018-08-19T11:28:31.185Z,26.39
2018-08-19T11:29:31.191Z,26.35
2018-08-19T11:30:31.199Z,26.36
2018-08-19T11:31:31.292Z,26.29
2018-08-19T11:32:31.209Z,26.08
2018-08-19T11:33:31.217Z,26.09
2018-08-19T11:34:31.227Z,26.25
2018-08-19T11:35:31.232Z,26.04
2018-08-19T11:36:31.240Z,26.15
2018-08-19T11:37:31.245Z,26.40
2018-08-19T11:38:31.326Z,26.37
2018-08-19T11:39:31.256Z,26.43
2018-08-19T11:40:31.263Z,26.37
2018-08-19T11:41:31.277Z,26.42
2018-08-19T11:42:31.279Z,26.22
2018-08-19T11:43:31.298Z,26.24
2018-08-19T11:44:31.294Z,26.46
2018-08-19T11:45:31.301Z,26.61
2018-08-19T11:46:31.303Z,26.79
2018-08-19T11:47:31.311Z,26.81
2018-08-19T11:48:31.334Z,26.95
2018-08-19T11:49:31.334Z,26.81
2018-08-19T11:50:31.365Z,26.77
2018-08-19T11:51:31.371Z,26.54
2018-08-19T11:52:31.344Z,26.84
2018-08-19T11:53:31.351Z,26.76
2018-08-19T11:54:31.364Z,26.61
2018-08-19T11:55:31.374Z,26.65
2018-08-19T11:56:31.371Z,26.65
2018-08-19T11:57:31.380Z,26.67
2018-08-19T11:58:31.395Z,26.47
2018-08-19T11:59:31.395Z,26.40
2018-08-19T12:00:31.404Z,26.58
2018-08-19T12:01:31.446Z,26.72
2018-08-19T12:02:31.440Z,26.55
2018-08-19T12:03:31.423Z,26.37
2018-08-19T12:04:31.436Z,26.20
2018-08-19T12:05:31.437Z,26.09
2018-08-19T12:06:31.446Z,26.25
2018-08-19T12:07:31.447Z,26.04
2018-08-19T12:08:31.450Z,26.01
2018-08-19T12:09:31.515Z,26.08
2018-08-19T12:10:31.477Z,25.98
2018-08-19T12:11:31.514Z,25.87
2018-08-19T12:12:31.484Z,26.24
2018-08-19T12:13:31.489Z,26.46
2018-08-19T12:14:31.502Z,26.72
2018-08-19T12:15:31.496Z,26.73
2018-08-19T12:16:31.513Z,26.79
2018-08-19T12:17:31.514Z,26.83
2018-08-19T12:18:31.523Z,27.04
2018-08-19T12:19:31.531Z,27.11
2018-08-19T12:20:31.540Z,27.01
2018-08-19T12:21:31.544Z,26.80
2018-08-19T12:22:31.547Z,26.87
2018-08-19T12:23:31.554Z,26.54
2018-08-19T12:24:31.562Z,26.64
2018-08-19T12:25:31.608Z,26.67
2018-08-19T12:26:31.592Z,26.61
2018-08-19T12:27:31.724Z,26.80
2018-08-19T12:28:31.596Z,27.10
2018-08-19T12:29:31.607Z,27.10
2018-08-19T12:30:31.612Z,26.98
2018-08-19T12:31:31.613Z,27.05
2018-08-19T12:32:31.615Z,27.10
2018-08-19T12:33:31.627Z,27.21
2018-08-19T12:34:31.636Z,27.26
2018-08-19T12:35:31.644Z,27.35
2018-08-19T12:36:31.645Z,27.01
2018-08-19T12:37:31.814Z,26.96
2018-08-19T12:38:31.883Z,26.98
2018-08-19T12:39:31.727Z,27.06
2018-08-19T12:40:31.689Z,27.01
2018-08-19T12:41:31.687Z,27.05
2018-08-19T12:42:31.689Z,27.04
2018-08-19T12:43:31.783Z,26.98
2018-08-19T12:44:31.707Z,27.29
2018-08-19T12:45:31.709Z,27.58
2018-08-19T12:46:31.723Z,27.76
2018-08-19T12:47:31.726Z,27.89
2018-08-19T12:48:31.735Z,27.33
2018-08-19T12:49:31.741Z,27.28
2018-08-19T12:50:31.746Z,27.26
2018-08-19T12:51:31.837Z,27.24
2018-08-19T12:52:31.758Z,27.19
2018-08-19T12:53:31.840Z,27.17
2018-08-19T12:54:31.778Z,27.04
2018-08-19T12:55:31.777Z,26.99
2018-08-19T12:56:31.797Z,27.23
2018-08-19T12:57:31.801Z,27.26
2018-08-19T12:58:31.806Z,27.21
2018-08-19T12:59:31.814Z,27.24
2018-08-19T13:00:31.822Z,27.13
2018-08-19T13:01:31.828Z,27.11
2018-08-19T13:02:31.833Z,27.19
2018-08-19T13:03:31.837Z,27.23
2018-08-19T13:04:31.859Z,27.51
2018-08-19T13:05:31.865Z,27.62
2018-08-19T13:06:31.859Z,27.76
2018-08-19T13:07:31.875Z,27.61
2018-08-19T13:08:31.872Z,27.57
2018-08-19T13:09:31.878Z,27.21
2018-08-19T13:10:31.899Z,27.28
2018-08-19T13:11:31.905Z,27.36
2018-08-19T13:12:31.902Z,27.43
2018-08-19T13:13:31.913Z,27.50
2018-08-19T13:14:31.923Z,27.48
2018-08-19T13:15:31.923Z,27.77
2018-08-19T13:16:31.941Z,27.70
2018-08-19T13:17:31.945Z,27.79
2018-08-19T13:18:31.952Z,27.86
2018-08-19T13:19:31.955Z,27.80
2018-08-19T13:20:31.962Z,27.76
2018-08-19T13:21:31.980Z,27.85
2018-08-19T13:22:31.983Z,27.69
2018-08-19T13:23:32.366Z,27.51
2018-08-19T13:24:31.996Z,27.42
2018-08-19T13:25:31.997Z,27.39
2018-08-19T13:26:32.022Z,27.57
2018-08-19T13:27:32.024Z,27.94
2018-08-19T13:28:32.035Z,27.94
2018-08-19T13:29:32.027Z,27.77
2018-08-19T13:30:32.036Z,27.85
2018-08-19T13:31:32.049Z,27.77
2018-08-19T13:32:32.048Z,27.62
2018-08-19T13:33:32.056Z,27.53
2018-08-19T13:34:32.062Z,27.43
2018-08-19T13:35:32.083Z,27.48
2018-08-19T13:36:40.722Z,27.67
2018-08-19T13:38:25.544Z,27.89
2018-08-19T13:39:25.535Z,27.92
2018-08-19T13:40:25.647Z,27.88
2018-08-19T13:41:25.554Z,27.99
2018-08-19T13:42:25.585Z,28.06
2018-08-19T13:43:25.556Z,28.19
2018-08-19T13:44:25.566Z,28.04
2018-08-19T13:45:25.594Z,28.21
2018-08-19T13:46:25.582Z,28.25
2018-08-19T13:47:25.599Z,28.09
2018-08-19T13:48:25.605Z,28.09
2018-08-19T13:49:25.613Z,28.13
2018-08-19T13:50:25.617Z,27.89
2018-08-19T13:51:25.645Z,28.17
2018-08-19T13:52:25.636Z,28.40
2018-08-19T13:53:25.835Z,28.38
2018-08-19T13:54:25.649Z,28.28
2018-08-19T13:55:25.953Z,28.17
2018-08-19T13:56:25.667Z,28.19
2018-08-19T13:57:25.668Z,28.29
2018-08-19T13:58:25.682Z,28.43
2018-08-19T13:59:25.681Z,28.40
2018-08-19T14:00:25.688Z,27.95
2018-08-19T14:01:25.718Z,28.10
2018-08-19T14:02:25.714Z,27.94
2018-08-19T14:03:25.761Z,28.03
2018-08-19T14:04:25.721Z,28.25
2018-08-19T14:05:25.754Z,28.09
2018-08-19T14:06:25.742Z,27.94
2018-08-19T14:07:25.757Z,27.94
2018-08-19T14:08:25.754Z,27.91
2018-08-19T14:09:25.785Z,28.07
2018-08-19T14:10:25.767Z,28.10
2018-08-19T14:11:25.786Z,28.14
2018-08-19T14:12:25.793Z,27.99
2018-08-19T14:13:25.809Z,27.89
2018-08-19T14:14:25.801Z,27.91
2018-08-19T14:15:25.805Z,27.92
2018-08-19T14:16:25.830Z,28.01
2018-08-19T14:17:25.824Z,28.29
2018-08-19T14:18:25.837Z,28.36
2018-08-19T14:19:25.849Z,28.46
2018-08-19T14:20:25.849Z,28.54
2018-08-19T14:21:25.854Z,28.17
2018-08-19T14:22:25.887Z,28.46
2018-08-19T14:23:25.878Z,28.56
2018-08-19T14:24:25.885Z,28.53
2018-08-19T14:25:25.895Z,28.40
2018-08-19T14:26:25.887Z,28.41
2018-08-19T14:27:25.898Z,28.35
2018-08-19T14:28:25.902Z,28.46
2018-08-19T14:29:25.916Z,28.54
2018-08-19T14:30:26.032Z,28.59
2018-08-19T14:31:25.931Z,28.56
2018-08-19T14:32:25.957Z,28.54
2018-08-19T14:33:25.949Z,28.59
2018-08-19T14:34:25.954Z,28.53
2018-08-19T14:35:25.964Z,28.26
2018-08-19T14:36:25.967Z,28.31
2018-08-19T14:37:25.979Z,28.60
2018-08-19T14:38:25.981Z,28.77
2018-08-19T14:39:25.992Z,28.68
2018-08-19T14:40:26.171Z,28.54
2018-08-19T14:41:26.003Z,28.47
2018-08-19T14:42:26.026Z,28.44
2018-08-19T14:43:26.022Z,28.56
2018-08-19T14:44:26.040Z,28.54
2018-08-19T14:45:26.074Z,28.60
2018-08-19T14:46:26.077Z,28.56
2018-08-19T14:47:26.060Z,28.51
2018-08-19T14:48:26.074Z,28.46
2018-08-19T14:49:26.082Z,28.38
2018-08-19T14:50:26.089Z,28.36
2018-08-19T14:51:26.079Z,28.33
2018-08-19T14:52:26.102Z,28.36
2018-08-19T14:53:26.111Z,28.19
2018-08-19T14:54:26.112Z,28.25
2018-08-19T14:55:26.127Z,28.01
2018-08-19T14:56:26.137Z,28.21
2018-08-19T14:57:26.150Z,28.32
2018-08-19T14:58:26.140Z,28.38
2018-08-19T14:59:26.146Z,28.14
2018-08-19T15:00:26.153Z,28.17
2018-08-19T15:01:26.170Z,28.48
2018-08-19T15:02:26.184Z,28.69
2018-08-19T15:03:26.194Z,28.73
2018-08-19T15:04:26.184Z,28.60
2018-08-19T15:05:26.213Z,28.36
2018-08-19T15:06:26.200Z,28.44
2018-08-19T15:07:26.221Z,28.51
2018-08-19T15:08:26.227Z,28.58
2018-08-19T15:09:26.231Z,28.53
2018-08-19T15:10:26.242Z,28.73
2018-08-19T15:11:26.250Z,28.69
2018-08-19T15:12:26.252Z,28.51
2018-08-19T15:13:26.271Z,28.44
2018-08-19T15:14:26.264Z,28.38
2018-08-19T15:15:26.280Z,28.43
2018-08-19T15:16:26.289Z,28.43
2018-08-19T15:17:26.293Z,28.29
2018-08-19T15:18:26.293Z,28.23
2018-08-19T15:19:26.304Z,28.36
2018-08-19T15:20:26.316Z,28.54
2018-08-19T15:21:26.327Z,28.41
2018-08-19T15:22:26.331Z,28.41
2018-08-19T15:23:26.335Z,28.21
2018-08-19T15:24:26.343Z,28.58
2018-08-19T15:25:26.356Z,28.66
2018-08-19T15:26:26.362Z,28.77
2018-08-19T15:27:26.386Z,28.66
2018-08-19T15:28:26.390Z,28.58
2018-08-19T15:29:26.389Z,28.56
2018-08-19T15:30:26.391Z,28.60
2018-08-19T15:31:26.402Z,28.75
2018-08-19T15:32:26.627Z,28.87
2018-08-19T15:33:26.423Z,28.73
2018-08-19T15:34:26.432Z,28.47
2018-08-19T15:35:26.432Z,28.73
2018-08-19T15:36:26.448Z,28.85
2018-08-19T15:37:26.453Z,28.66
2018-08-19T15:38:26.460Z,28.82
2018-08-19T15:39:26.465Z,28.96
2018-08-19T15:40:26.476Z,29.00
2018-08-19T15:41:26.481Z,29.08
2018-08-19T15:42:26.490Z,29.15
2018-08-19T15:43:26.504Z,29.11
2018-08-19T15:44:26.518Z,28.77
2018-08-19T15:45:26.525Z,28.51
2018-08-19T15:46:26.527Z,28.50
2018-08-19T15:47:26.529Z,28.70
2018-08-19T15:48:26.543Z,28.95
2018-08-19T15:49:26.550Z,28.88
2018-08-19T15:50:26.558Z,28.97
2018-08-19T15:51:26.598Z,28.59
2018-08-19T15:52:26.607Z,28.40
2018-08-19T15:53:26.579Z,28.47
2018-08-19T15:54:26.582Z,28.41
2018-08-19T15:55:26.596Z,28.41
2018-08-19T15:56:26.602Z,28.46
2018-08-19T15:57:26.638Z,28.70
2018-08-19T15:58:26.619Z,28.66
2018-08-19T15:59:26.627Z,28.69
2018-08-19T16:00:26.640Z,28.68
2018-08-19T16:01:26.652Z,28.65
2018-08-19T16:02:26.646Z,28.70
2018-08-19T16:03:26.672Z,28.82
2018-08-19T16:04:26.680Z,28.53
2018-08-19T16:05:26.699Z,28.63
2018-08-19T16:06:26.685Z,28.70
2018-08-19T16:07:35.354Z,28.58
2018-08-19T16:09:20.123Z,28.72